• Join FlightAware (Why Join?)
  • Login
  • US Flag 
04:09AM EDT


 

Airport Tracker/Info


-or-


 

Live Flight TrackerFlight Track Log ✈ ASQ4577 ✈ 12-Jul-2013 ✈ KCLE - KALB

Flight Track Log - Related Links

Times and Time Zones

All times are in EDT time to prevent confusion due to time zone crossing. See the ASQ4577 flight status page for this flight to view local times or setup timezone preferences in your user account.

Time Position Orientation Groundspeed Altitude Reporting Facility
EDT Latitude Longitude Course Direction KTS MPH feet Rate Location/Type
07:13PM 41.4172 -81.8375 75° East 156 180 1,800  Level Cleveland Center
07:13PM 41.4489 -81.8158 27° Northeast 175 201 3,300 1,560 Climbing Cleveland Center
07:14PM 41.4950 -81.7864 26° Northeast 219 252 4,600 1,800 Climbing Cleveland Center
07:15PM 41.5558 -81.7431 28° Northeast 239 275 6,800 2,160 Climbing Cleveland Center
07:16PM 41.7330 -81.5170 37° Northeast  Level FlightAware Approximate
07:16PM 41.6086 -81.6800 42° Northeast 249 287 9,000  Level Cleveland Center
07:17PM 41.8168 -81.4332 37° Northeast  Level FlightAware Approximate
07:17PM 41.6678 -81.6144 40° Northeast 265 305 10,300  Level Cleveland Center
07:18PM 41.8487 -81.3067 75° East  Level FlightAware Approximate
07:18PM 41.7350 -81.5347 41° Northeast 301 346 11,300  Level Cleveland Center
07:19PM 41.7736 -81.4100 67° East 315 362 13,000 1,740 Climbing Cleveland Center
07:20PM 41.7931 -81.2933 77° East 320 368 14,800 1,740 Climbing Cleveland Center
07:21PM 41.8167 -81.1767 75° East 320 368 16,500 1,500 Climbing Cleveland Center
07:22PM 41.8381 -81.0597 76° East 320 368 17,900 1,260 Climbing Cleveland Center
07:23PM 41.8594 -80.9428 76° East 315 362 19,100 1,260 Climbing Cleveland Center
07:24PM 41.8825 -80.8231 75° East 315 362 20,500 1,200 Climbing Cleveland Center
07:25PM 41.9058 -80.6975 76° East 330 380 21,500 960 Climbing Cleveland Center
07:26PM 41.9308 -80.5719 75° East 342 394 22,500 900 Climbing Cleveland Center
07:27PM 41.9517 -80.4575 76° East 342 394 23,300 900 Climbing Cleveland Center
07:28PM 41.9764 -80.3233 76° East 357 411 24,400 1,080 Climbing Cleveland Center
07:29PM 42.0011 -80.1892 76° East 357 411 25,500 1,140 Climbing Cleveland Center
07:30PM 42.0233 -80.0550 77° East 357 411 26,700 1,200 Climbing Cleveland Center
07:31PM 42.0497 -79.9119 76° East 357 411 28,000 1,200 Climbing Cleveland Center
07:32PM 42.0758 -79.7747 76° East 357 411 29,100 1,020 Climbing Cleveland Center
07:33PM 42.0978 -79.6400 78° East 357 411 30,100 900 Climbing Cleveland Center
07:34PM 42.1236 -79.4997 76° East 363 418 31,000 420 Climbing Cleveland Center
07:35PM 42.1494 -79.3536 77° East 377 434 31,000  Level Cleveland Center
07:36PM 42.1747 -79.2047 77° East 396 456 31,000  Level Cleveland Center
07:37PM 42.1958 -79.0531 79° East 402 463 31,000  Level Cleveland Center
07:38PM 42.2128 -78.9264 80° East 414 476 31,000  Level Cleveland Center
07:39PM 42.2353 -78.7631 79° East 414 476 31,000  Level Cleveland Center
07:40PM 42.2558 -78.6083 80° East 409 471 31,000  Level Cleveland Center
07:41PM 42.2739 -78.4533 81° East 409 471 31,000  Level Cleveland Center
07:42PM 42.2917 -78.3011 81° East 409 471 31,000  Level Cleveland Center
07:43PM 42.3114 -78.1431 80° East 414 476 31,000  Level Cleveland Center
07:44PM 42.3311 -77.9881 80° East 414 476 31,000  Level Cleveland Center
07:45PM 42.3461 -77.8328 83° East 414 476 31,000 -60 Level Cleveland Center
07:46PM 42.3653 -77.6772 80° East 414 476 30,900 -600 Descending Cleveland Center
07:47PM 42.3842 -77.5247 80° East 414 476 29,900 -720 Descending Cleveland Center
07:49PM 42.4150 -77.2556 81° East 410 472 29,000 -360 Descending Boston Center
07:50PM 42.4294 -77.1047 83° East 405 466 29,000  Level Boston Center
07:51PM 42.4478 -76.9625 80° East 400 460 29,000  Level Boston Center
07:52PM 42.4619 -76.8142 83° East 400 460 29,000  Level Boston Center
07:53PM 42.4783 -76.6606 82° East 400 460 29,000  Level Boston Center
07:54PM 42.4942 -76.5094 82° East 405 466 29,000 -360 Level Boston Center
07:55PM 42.5119 -76.3583 81° East 405 466 28,300 -1,200 Descending Boston Center
07:56PM 42.5278 -76.2017 82° East 405 466 26,600 -1,620 Descending Boston Center
07:57PM 42.5433 -76.0475 82° East 410 472 25,100 -1,500 Descending Boston Center
07:58PM 42.5561 -75.8961 83° East 404 465 23,600 -1,500 Descending Boston Center
07:59PM 42.5731 -75.7558 81° East 398 458 22,100 -1,500 Descending Boston Center
08:00PM 42.5872 -75.6186 82° East 377 434 20,600 -1,500 Descending Boston Center
08:01PM 42.5994 -75.4836 83° East 363 418 19,100 -1,500 Descending Boston Center
08:02PM 42.6111 -75.3544 83° East 356 410 17,700 -1,680 Descending Boston Center
08:03PM 42.6222 -75.2364 83° East 336 387 15,800 -2,040 Descending Boston Center
08:04PM 42.6314 -75.1239 84° East 319 367 13,700 -1,800 Descending Boston Center
08:05PM 42.6417 -75.0342 81° East 308 354 12,200 -1,380 Descending Boston Center
08:06PM 42.6531 -74.8989 83° East 302 348 11,000 -660 Descending Boston Center
08:07PM 42.6617 -74.7919 84° East 298 343 11,000  Level Boston Center
08:08PM 42.6722 -74.6850 82° East 302 348 11,000  Level Boston Center
08:09PM 42.6850 -74.5556 82° East 300 345 11,000 -60 Level Boston Center
08:10PM 42.6572 -74.4756 115° Southeast 270 311 10,900 -1,200 Descending Boston Center
08:11PM 42.6403 -74.3678 102° East 264 304 8,700 -1,800 Descending Boston Center
08:12PM 42.6272 -74.2800 101° East 264 304 7,300 -1,560 Descending Boston Center
08:13PM 42.6122 -74.1781 101° East 250 288 5,600 -1,560 Descending Boston Center
08:14PM 42.6008 -74.0986 101° East 240 276 4,200 -780 Descending Boston Center
08:15PM 42.6044 -73.9944 87° East 219 252 4,000 -120 Descending Boston Center
08:16PM 42.6072 -73.9325 86° East 215 247 4,000 -600 Level Boston Center
08:17PM 42.6147 -73.8536 83° East 214 246 2,900 -1,080 Descending Boston Center
08:18PM 42.6611 -73.8036 38° Northeast 178 205 1,800 -900 Descending Boston Center
08:19PM 42.6986 -73.8044 359° North 131 151 1,100 -720 Descending Boston Center